Hovedside
METAR-TAF:

METAR-TAF

Lufthavner :

Åbo, Finland

Åbo lufthavn

breddegrad: 60-31N, lengdegrad: 022-16E, høyde over havet: 49 m

Gjeldene værobservasjon

Denne rapporten ble laget for 30 minutter siden, klokken 18:20 UTC
Vind 9 kt fra Øst
Temperatur 11°C
Luftfuktighet 94%
Trykk 1026 hPa
Sikt 10 km eller mer

METAR: EFTU 221820Z AUTO 09009KT 9999 OVC007/// 11/10 Q1026

Tid: 21:50 (18:50 UTC)

Varsel

Denne rapporten ble laget for 1 time og 21 minutter siden, klokken 17:29 UTC
Varsel gyldig fra 22. klokken 18 UTC til 23. klokken 18 UTC
Vind 11 kt fra Øst
Sikt 10 km eller mer
Overskyet i en høyde av 700 ft
Sannsynlighet 40%
fra 23. klokken 00 UTC til 23. klokken 06 UTC
Sikt: 4000 m
Brutte skyer i en høyde av 400 ft
dis
Blir
fra 23. klokken 06 UTC til 23. klokken 08 UTC
Sikt 10 km eller mer
ingen skyer under 1500 m og ingen bygeskyer

TAF: EFTU 221729Z 2218/2318 09011KT 9999 OVC007 PROB40 2300/2306 4000 BR BKN004 BECMG 2306/2308 CAVOK

Værobservasjoner og værvarsel for over 4000 flyplasser (METAR- og TAF-rapporter).

Tilgjengelige stasjoner er representert av de røde og gule prikkene på kartet.

Hold musepekeren over prikken for å se navnet på stasjonen.

Klikk så for å se værobservasjoner og -varsler.

For å forandre kartet kan du klikke på den grønne knappen med svart kryss for å zoome inn, på den grønne knappen med strek for å zoome ut, eller på de grønne pilene for å se tilstøtende kart.


METAR-TAF: